This is the latest recevied weather packets stored in our database for station/object K2CAT. If no packets are shown the sender has not sent any weather packets the latest 10 day(s).
| Time | Temp. | Humidity | Pressure | Rain* | Wind** | Luminosity | Snow |
|---|---|---|---|---|---|---|---|
| 1777432590 | 11.67° C | 70% | 1017.2 hPa | 0 mm | - | 0 W/m² | - |
| 1777429555 | 13.89° C | 60% | 1016.8 hPa | 0 mm | - | 0 W/m² | - |
| 1777428034 | 14.44° C | 57% | 1017 hPa | 0 mm | - | 0 W/m² | - |
| 1777415590 | 17.78° C | 43% | 1017.3 hPa | 0 mm | - | 36 W/m² | - |
| 1777414680 | 18.33° C | 41% | 1017.4 hPa | 0 mm | - | 56 W/m² | - |
| 1777414376 | 18.33° C | 39% | 1017.4 hPa | 0 mm | - | 65 W/m² | - |
| 1777414076 | 18.33° C | 39% | 1017.5 hPa | 0 mm | - | 73 W/m² | - |
| 1777413776 | 17.78° C | 42% | 1017.5 hPa | 0 mm | - | 79 W/m² | - |
| 1777412261 | 18.33° C | 40% | 1017.6 hPa | 0 mm | - | 54 W/m² | - |
| 1777411050 | 18.33° C | 40% | 1017.5 hPa | 0 mm | - | 90 W/m² | - |
| 1777408623 | 18.89° C | 39% | 1017.7 hPa | 0 mm | - | 77 W/m² | - |
| 1777405582 | 19.44° C | 40% | 1018.4 hPa | 0 mm | - | 83 W/m² | - |
| 1777404979 | 19.44° C | 38% | 1018.2 hPa | 0 mm | - | 91 W/m² | - |
| 1777404674 | 19.44° C | 41% | 1018.5 hPa | 0 mm | - | 104 W/m² | - |
| 1777404370 | 20° C | 38% | 1018.5 hPa | 0 mm | - | 114 W/m² | - |
| 1777404067 | 19.44° C | 43% | 1018.5 hPa | 0 mm | - | 120 W/m² | - |
| 1777403763 | 20° C | 41% | 1018.6 hPa | 0 mm | - | 129 W/m² | - |
| 1777403461 | 20° C | 41% | 1018.8 hPa | 0 mm | - | 136 W/m² | - |
| 1777403156 | 20° C | 41% | 1018.8 hPa | 0 mm | - | 146 W/m² | - |
| 1777402549 | 20° C | 41% | 1019.1 hPa | 0 mm | - | 169 W/m² | - |
| 1777400426 | 20° C | 41% | 1019.1 hPa | 0 mm | - | 296 W/m² | - |
| 1777400128 | 20° C | 43% | 1019 hPa | 0 mm | - | 276 W/m² | - |
| 1777399218 | 20° C | 39% | 1019.2 hPa | 0 mm | - | 353 W/m² | - |
| 1777398915 | 20° C | 44% | 1019.3 hPa | 0 mm | - | 314 W/m² | - |
| 1777398612 | 20° C | 41% | 1019.3 hPa | 0 mm | - | 358 W/m² | - |
* Rain latest hour (hover to see other rain measurements)
** Current wind speed in m/s (hover to see current wind gust speed)